Terminal Aerodrome Forecast
Issued by NWS Twin Cities, MN

Home | Current Version | Previous Version | Graphics & Text | Print | Product List | Glossary On
Versions: 1 2 3 4 5 6 7 8 9 10 11 12 13 14 15
000
FTUS43 KMPX 261700
TAFEAU
TAF
KEAU 261720Z 2618/2718 30007KT P6SM SCT025 BKN200
     FM262200 25007KT P6SM SCT030 BKN150
     FM270300 26006KT P6SM -SHRA SCT050 BKN250
     FM270600 29009KT P6SM SCT050 BKN100
     FM271400 31014G20KT P6SM -SHRA BKN015 OVC030=

USA.gov is the U.S. government's official web portal to all federal, state and local government web resources and services.